.
WxDataArchive / Data Records for 2009-04-02
2009-04-01 April 2009 2009-04-03

Data Records for Thursday, 02 April 2009

Time	Temp	Chill	HIndex	Humid	Dewpt	 Wind 	HiWind	WindDir	Rain 	Barom 
-----	----	-----	------	-----	-----	------	------	-------	-----	----- 
00:00	45.7	45.7	45.7	57	31.3	0	1	248	0.00	29.928 
00:05	46.0	46.0	46.0	57	31.6	0	1	248	0.00	29.927 
00:10	46.1	46.1	46.1	56	31.3	0	1	248	0.00	29.927 
00:15	46.5	46.5	46.5	55	31.2	0	1	248	0.00	29.928 
00:20	46.7	46.7	46.7	56	31.8	0	1	248	0.00	29.925 
00:25	46.8	46.8	46.8	54	31.0	0	1	248	0.00	29.926 
00:30	47.0	47.0	47.0	54	31.2	0	1	248	0.00	29.927 
00:35	47.3	47.3	47.3	53	31.0	0	1	248	0.00	29.928 
00:40	47.4	47.4	47.4	53	31.1	0	0	---	0.00	29.927 
00:45	47.4	47.4	47.4	53	31.1	0	0	---	0.00	29.928 
00:50	47.6	47.6	47.6	52	30.9	0	1	248	0.00	29.928 
00:55	47.7	47.7	47.7	52	30.9	0	1	248	0.00	29.927 
01:00	47.7	47.7	47.7	51	30.5	0	1	248	0.00	29.927 
01:05	47.9	47.9	47.9	52	31.1	0	0	---	0.00	29.926 
01:10	47.9	47.9	47.9	52	31.1	0	0	---	0.00	29.926 
01:15	47.7	47.7	47.7	53	31.4	0	0	---	0.00	29.922 
01:20	47.7	47.7	47.7	53	31.4	0	0	---	0.00	29.918 
01:25	47.6	47.6	47.6	53	31.3	0	0	---	0.00	29.916 
01:30	47.6	47.6	47.6	53	31.3	0	0	---	0.00	29.912 
01:35	47.7	47.7	47.7	53	31.4	0	1	248	0.00	29.913 
01:40	47.9	47.9	47.9	53	31.6	0	0	---	0.00	29.916 
01:45	48.0	48.0	48.0	54	32.2	0	1	248	0.00	29.913 
01:50	48.0	48.0	48.0	55	32.6	0	1	248	0.00	29.909 
01:55	48.0	48.0	48.0	57	33.5	0	1	248	0.00	29.901 
02:00	47.9	47.9	47.9	58	33.8	0	0	---	0.00	29.896 
02:05	47.9	47.9	47.9	58	33.8	0	0	---	0.00	29.892 
02:10	47.9	47.9	47.9	59	34.3	0	0	---	0.00	29.892 
02:15	48.0	48.0	48.0	60	34.8	0	0	---	0.00	29.889 
02:20	48.3	48.3	48.3	59	34.6	0	1	248	0.00	29.888 
02:25	48.5	48.5	48.5	60	35.3	0	1	248	0.00	29.888 
02:30	48.5	48.5	48.5	59	34.8	0	1	248	0.00	29.887 
02:35	48.6	48.6	48.6	59	34.9	0	1	248	0.00	29.892 
02:40	48.6	48.6	48.6	58	34.5	0	1	248	0.00	29.893 
02:45	48.6	48.6	48.6	57	34.1	0	1	248	0.00	29.892 
02:50	48.9	48.9	48.9	58	34.8	0	2	248	0.00	29.890 
02:55	49.2	49.2	49.2	55	33.7	1	2	90	0.00	29.888 
03:00	49.2	49.2	49.2	56	34.2	1	3	90	0.00	29.894 
03:05	49.1	49.1	49.1	56	34.1	0	1	90	0.00	29.892 
03:10	48.9	48.9	48.9	56	33.9	0	0	---	0.00	29.885 
03:15	48.8	48.8	48.8	56	33.8	0	0	---	0.00	29.881 
03:20	48.6	48.6	48.6	58	34.5	0	1	90	0.00	29.887 
03:25	48.5	48.5	48.5	59	34.8	1	3	90	0.00	29.890 
03:30	48.5	48.5	48.5	57	34.0	0	3	90	0.00	29.888 
03:35	48.5	48.5	48.5	58	34.4	0	1	90	0.00	29.889 
03:40	48.5	48.5	48.5	58	34.4	0	1	90	0.00	29.892 
03:45	48.3	48.3	48.3	59	34.6	0	0	---	0.00	29.890 
03:50	48.2	48.2	48.2	59	34.6	0	0	---	0.00	29.888 
03:55	47.9	47.9	47.9	61	35.1	0	0	---	0.00	29.889 
04:00	47.7	47.7	47.7	60	34.5	0	0	---	0.00	29.891 
04:05	47.6	47.6	47.6	60	34.4	0	0	---	0.00	29.890 
04:10	47.4	47.4	47.4	62	35.0	0	0	---	0.00	29.884 
04:15	47.3	47.3	47.3	62	34.9	0	1	90	0.00	29.883 
04:20	47.3	47.3	47.3	62	34.9	0	1	90	0.00	29.891 
04:25	47.3	47.3	47.3	62	34.9	0	1	90	0.00	29.886 
04:30	47.3	47.3	47.3	63	35.4	0	1	90	0.00	29.880 
04:35	47.1	47.1	47.1	65	35.9	0	1	90	0.00	29.878 
04:40	47.0	47.0	47.0	65	35.9	0	1	90	0.00	29.877 
04:45	46.8	46.8	46.8	65	35.7	0	0	---	0.00	29.880 
04:50	46.5	46.5	46.5	65	35.4	0	1	90	0.00	29.875 
04:55	46.4	46.4	46.4	65	35.3	0	0	---	0.00	29.874 
05:00	46.2	46.2	46.2	66	35.5	0	1	90	0.00	29.869 
05:05	46.0	46.0	46.0	66	35.3	0	1	90	0.00	29.866 
05:10	45.7	45.7	45.7	67	35.4	0	0	---	0.00	29.867 
05:15	45.4	45.4	45.4	68	35.5	0	1	90	0.00	29.866 
05:20	45.1	45.1	45.1	68	35.2	0	0	---	0.00	29.866 
05:25	44.8	44.8	44.8	70	35.6	0	1	90	0.00	29.865 
05:30	44.5	44.5	44.5	70	35.3	0	1	90	0.00	29.865 
05:35	44.3	44.3	44.3	70	35.1	0	0	---	0.00	29.868 
05:40	44.2	44.2	44.2	70	35.0	0	1	90	0.00	29.867 
05:45	44.2	44.2	44.2	70	35.0	0	1	90	0.00	29.866 
05:50	44.3	44.3	44.3	69	34.8	0	2	90	0.00	29.863 
05:55	44.3	44.3	44.3	69	34.8	0	0	---	0.00	29.866 
06:00	44.3	44.3	44.3	69	34.8	0	1	90	0.00	29.866 
06:05	44.3	44.3	44.3	68	34.4	0	2	90	0.00	29.868 
06:10	44.2	44.2	44.2	67	33.9	0	2	90	0.00	29.868 
06:15	44.2	44.2	44.2	67	33.9	0	0	---	0.00	29.868 
06:20	44.1	44.1	44.1	67	33.9	0	0	---	0.00	29.869 
06:25	43.8	43.8	43.8	66	33.2	0	0	---	0.00	29.870 
06:30	43.5	43.5	43.5	67	33.3	0	1	90	0.00	29.870 
06:35	43.3	43.3	43.3	67	33.1	0	0	---	0.00	29.868 
06:40	43.1	43.1	43.1	67	32.9	0	0	---	0.00	29.871 
06:45	42.9	42.9	42.9	66	32.3	0	1	90	0.00	29.870 
06:50	42.9	42.9	42.9	66	32.3	0	0	---	0.00	29.871 
06:55	42.8	42.8	42.8	65	31.9	0	1	90	0.00	29.878 
07:00	42.9	42.9	42.9	65	32.0	0	1	90	0.00	29.877 
07:05	43.1	43.1	43.1	65	32.1	0	1	90	0.00	29.874 
07:10	43.2	43.2	43.2	65	32.2	0	0	---	0.00	29.872 
07:15	43.6	43.6	43.6	65	32.6	0	0	---	0.00	29.870 
07:20	44.2	44.2	44.2	62	32.0	0	0	---	0.00	29.871 
07:25	44.9	44.9	44.9	60	31.9	0	1	112	0.00	29.874 
07:30	45.7	45.7	45.7	59	32.2	0	0	---	0.00	29.878 
07:35	46.2	46.2	46.2	57	31.8	0	1	112	0.00	29.874 
07:40	46.8	46.8	46.8	56	31.9	0	1	112	0.00	29.872 
07:45	47.4	47.4	47.4	56	32.5	0	1	112	0.00	29.880 
07:50	47.9	47.9	47.9	55	32.5	0	1	112	0.00	29.881 
07:55	48.3	48.3	48.3	55	32.9	0	2	112	0.00	29.883 
08:00	48.6	48.6	48.6	53	32.3	0	2	112	0.00	29.881 
08:05	48.9	48.9	48.9	53	32.5	1	2	112	0.00	29.884 
08:10	49.2	49.2	49.2	53	32.8	1	2	112	0.00	29.884 
08:15	49.5	49.5	49.5	53	33.1	0	1	112	0.00	29.883 
08:20	49.8	49.8	49.8	53	33.4	0	2	112	0.00	29.882 
08:25	50.2	50.2	50.2	52	33.3	1	3	112	0.00	29.881 
08:30	50.7	50.7	50.7	51	33.2	0	1	112	0.00	29.879 
08:35	51.1	51.1	51.1	50	33.1	1	2	112	0.00	29.874 
08:40	51.7	51.7	51.7	48	32.6	1	4	112	0.00	29.874 
08:45	52.2	52.2	52.2	46	32.1	0	2	135	0.00	29.879 
08:50	52.6	52.6	52.6	46	32.4	1	3	135	0.00	29.876 
08:55	53.2	53.2	53.2	46	33.0	1	3	112	0.00	29.878 
09:00	54.1	54.1	54.1	43	32.1	2	3	112	0.00	29.876 
09:05	54.8	54.8	54.8	41	31.6	1	3	112	0.00	29.870 
09:10	55.3	55.3	55.3	39	30.8	1	6	135	0.00	29.866 
09:15	55.4	55.4	55.4	36	28.9	3	6	90	0.00	29.858 
09:20	55.4	55.4	55.4	37	29.6	2	7	112	0.00	29.851 
09:25	55.6	55.6	55.6	36	29.1	2	5	112	0.00	29.851 
09:30	55.6	55.6	55.6	37	29.7	2	4	112	0.00	29.848 
09:35	55.7	55.7	55.7	35	28.5	2	6	112	0.00	29.845 
09:40	56.0	56.0	56.0	35	28.7	3	9	112	0.00	29.849 
09:45	56.2	56.2	56.2	35	28.9	3	7	90	0.00	29.849 
09:50	56.5	56.5	56.5	34	28.5	3	7	112	0.00	29.847 
09:55	56.6	56.6	56.6	34	28.6	2	6	90	0.00	29.837 
10:00	57.0	57.0	57.0	34	28.9	3	9	90	0.00	29.840 
10:05	58.0	58.0	58.0	34	29.8	3	7	90	0.00	29.835 
10:10	58.4	58.4	58.4	32	28.7	3	7	112	0.00	29.831 
10:15	58.4	58.4	58.4	33	29.4	3	6	112	0.00	29.829 
10:20	58.1	58.1	58.1	30	26.8	6	13	112	0.00	29.824 
10:25	58.0	58.0	58.0	32	28.3	4	11	112	0.00	29.816 
10:30	58.1	58.1	58.1	32	28.4	5	12	112	0.00	29.803 
10:35	58.1	58.1	58.1	31	27.6	6	16	112	0.00	29.803 
10:40	58.4	58.4	58.4	31	27.9	4	16	90	0.00	29.801 
10:45	58.9	58.9	58.9	28	25.9	5	11	112	0.00	29.788 
10:50	58.9	58.9	58.9	29	26.7	8	15	90	0.00	29.792 
10:55	59.3	59.3	59.3	31	28.7	4	10	112	0.00	29.788 
11:00	59.6	59.6	59.6	28	26.5	6	12	112	0.00	29.783 
11:05	59.8	59.8	59.8	28	26.6	6	11	112	0.00	29.779 
11:10	59.6	59.6	59.6	30	28.1	7	13	112	0.00	29.773 
11:15	59.5	59.5	59.5	29	27.2	6	15	112	0.00	29.770 
11:20	60.2	60.2	60.2	30	28.7	6	12	90	0.00	29.767 
11:25	61.0	61.0	61.0	28	27.7	5	12	112	0.00	29.767 
11:30	61.6	61.6	61.6	28	28.2	4	12	112	0.00	29.764 
11:35	62.0	62.0	62.0	26	26.7	8	21	90	0.00	29.764 
11:40	61.6	61.6	61.6	26	26.4	8	16	112	0.00	29.764 
11:45	61.0	61.0	61.0	27	26.8	7	17	112	0.00	29.762 
11:50	60.7	60.7	60.7	27	26.5	9	16	90	0.00	29.763 
11:55	60.5	60.5	60.5	27	26.4	7	12	112	0.00	29.758 
12:00	60.9	60.9	60.9	27	26.7	5	14	112	0.00	29.757 
12:05	60.9	60.9	60.9	27	26.7	6	12	112	0.00	29.751 
12:10	60.7	60.7	60.7	28	27.4	5	12	112	0.00	29.749 
12:15	60.9	60.9	60.9	28	27.6	4	11	112	0.00	29.738 
12:20	61.2	61.2	61.2	28	27.8	5	11	112	0.00	29.733 
12:25	61.6	61.6	61.6	27	27.3	7	15	112	0.00	29.726 
12:30	62.3	62.3	62.3	27	27.9	6	13	90	0.00	29.708 
12:35	63.4	63.4	63.4	26	27.9	6	18	112	0.00	29.704 
12:40	64.3	64.3	64.3	25	27.7	7	15	112	0.00	29.696 
12:45	64.5	64.5	64.5	27	29.8	7	13	112	0.00	29.683 
12:50	64.7	64.7	64.7	27	29.9	9	17	112	0.00	29.682 
12:55	64.5	64.5	64.5	26	28.9	9	14	112	0.00	29.678 
13:00	64.7	64.7	64.7	26	29.0	8	16	112	0.00	29.665 
13:05	64.8	64.8	64.8	28	30.9	7	13	90	0.00	29.654 
13:10	65.2	65.2	65.2	27	30.4	6	12	112	0.00	29.650 
13:15	65.3	65.3	65.3	29	32.2	7	17	112	0.00	29.647 
13:20	65.6	65.6	65.6	28	31.6	6	14	112	0.00	29.639 
13:25	65.6	65.6	65.6	28	31.6	8	13	90	0.00	29.633 
13:30	66.0	66.0	66.0	27	31.1	7	15	90	0.00	29.632 
13:35	66.3	66.3	66.3	27	31.3	7	14	90	0.00	29.627 
13:40	66.3	66.3	66.3	27	31.3	7	14	112	0.00	29.623 
13:45	66.4	66.4	66.4	27	31.4	7	17	112	0.00	29.618 
13:50	66.6	66.6	66.6	25	29.7	7	12	90	0.00	29.619 
13:55	66.8	66.8	66.8	25	29.8	8	17	112	0.00	29.620 
14:00	66.9	66.9	66.9	27	31.8	5	12	112	0.00	29.624 
14:05	67.1	67.1	67.1	25	30.1	6	14	90	0.00	29.621 
14:10	66.8	66.8	66.8	26	30.8	9	19	112	0.00	29.620 
14:15	66.8	66.8	66.8	27	31.7	6	17	112	0.00	29.615 
14:20	67.1	67.1	67.1	28	32.9	4	10	112	0.00	29.615 
14:25	67.1	67.1	67.1	28	32.9	5	10	112	0.00	29.615 
14:30	67.4	67.4	67.4	28	33.2	6	12	112	0.00	29.616 
14:35	67.6	67.6	67.6	27	32.4	6	12	112	0.00	29.616 
14:40	67.3	67.3	67.3	28	33.1	4	9	112	0.00	29.617 
14:45	67.1	67.1	67.1	27	32.0	5	12	112	0.00	29.615 
14:50	66.6	66.6	66.6	28	32.5	7	15	112	0.00	29.616 
14:55	66.6	66.6	66.6	27	31.6	6	15	112	0.00	29.616 
15:00	67.1	67.1	67.1	28	32.9	7	12	112	0.00	29.615 
15:05	67.1	67.1	67.1	28	32.9	5	12	112	0.00	29.616 
15:10	67.1	67.1	67.1	27	32.0	3	10	112	0.00	29.613 
15:15	67.1	67.1	67.1	27	32.0	5	12	112	0.00	29.616 
15:20	67.1	67.1	67.1	28	32.9	5	12	112	0.00	29.613 
15:25	67.3	67.3	67.3	28	33.1	5	12	90	0.00	29.603 
15:30	67.3	67.3	67.3	27	32.2	7	15	90	0.00	29.598 
15:35	66.9	66.9	66.9	28	32.7	6	13	90	0.00	29.592 
15:40	66.9	66.9	66.9	27	31.8	6	12	112	0.00	29.589 
15:45	67.4	67.4	67.4	28	33.2	4	12	112	0.00	29.584 
15:50	67.8	67.8	67.8	28	33.5	6	14	90	0.00	29.580 
15:55	67.6	67.6	67.6	28	33.3	5	13	90	0.00	29.574 
16:00	67.1	67.1	67.1	29	33.8	7	19	90	0.00	29.573 
16:05	66.9	66.9	66.9	29	33.6	7	14	112	0.00	29.572 
16:10	67.1	67.1	67.1	29	33.8	5	11	112	0.00	29.569 
16:15	67.4	67.4	67.4	28	33.2	6	11	90	0.00	29.557 
16:20	67.4	67.4	67.4	29	34.0	5	11	112	0.00	29.556 
16:25	66.9	66.9	66.9	29	33.6	6	15	112	0.00	29.555 
16:30	66.6	66.6	66.6	30	34.2	5	13	112	0.00	29.550 
16:35	66.6	66.6	66.6	31	35.0	6	11	112	0.00	29.544 
16:40	66.4	66.4	66.4	31	34.8	6	11	90	0.00	29.540 
16:45	66.3	66.3	66.3	31	34.8	5	10	90	0.00	29.531 
16:50	66.1	66.1	66.1	32	35.4	5	12	90	0.00	29.524 
16:55	66.3	66.3	66.3	33	36.3	4	10	90	0.00	29.514 
17:00	66.4	66.4	66.4	32	35.6	6	18	112	0.00	29.504 
17:05	66.6	66.6	66.6	34	37.3	4	9	112	0.00	29.505 
17:10	66.4	66.4	66.4	34	37.2	5	10	90	0.00	29.501 
17:15	66.1	66.1	66.1	34	36.9	4	10	90	0.00	29.500 
17:20	66.0	66.0	66.0	34	36.8	4	10	90	0.00	29.495 
17:25	65.6	65.6	65.6	34	36.5	4	9	112	0.00	29.493 
17:30	65.6	65.6	65.6	35	37.2	4	9	112	0.00	29.491 
17:35	65.3	65.3	65.3	36	37.7	4	10	112	0.00	29.491 
17:40	65.2	65.2	65.2	36	37.6	3	7	112	0.00	29.493 
17:45	65.0	65.0	65.0	36	37.4	3	7	112	0.00	29.496 
17:50	65.0	65.0	65.0	36	37.4	4	10	112	0.00	29.495 
17:55	64.8	64.8	64.8	37	37.9	3	7	90	0.00	29.495 
18:00	64.7	64.7	64.7	36	37.1	3	9	112	0.00	29.496 
18:05	64.7	64.7	64.7	37	37.8	3	7	90	0.00	29.497 
18:10	64.5	64.5	64.5	39	39.0	2	5	90	0.00	29.500 
18:15	64.2	64.2	64.2	39	38.7	1	3	90	0.00	29.497 
18:20	63.9	63.9	63.9	39	38.5	1	4	90	0.00	29.499 
18:25	63.7	63.7	63.7	39	38.3	0	1	112	0.00	29.497 
18:30	63.5	63.5	63.5	38	37.4	1	4	112	0.00	29.496 
18:35	63.4	63.4	63.4	39	38.0	1	5	68	0.00	29.490 
18:40	63.2	63.2	63.2	39	37.8	2	6	45	0.00	29.482 
18:45	63.2	63.2	63.2	39	37.8	2	6	90	0.00	29.482 
18:50	63.1	63.1	63.1	39	37.7	2	5	45	0.00	29.481 
18:55	62.9	62.9	62.9	38	36.9	3	10	45	0.00	29.481 
19:00	62.3	62.3	62.3	33	32.8	4	10	112	0.00	29.482 
19:05	61.6	61.6	61.6	34	33.0	4	11	112	0.00	29.474 
19:10	61.2	61.2	61.2	33	31.9	3	10	22	0.00	29.475 
19:15	60.7	60.7	60.7	34	32.2	3	10	112	0.00	29.476 
19:20	60.4	60.4	60.4	35	32.6	3	10	68	0.00	29.475 
19:25	59.9	59.9	59.9	36	32.9	2	7	68	0.00	29.465 
19:30	59.5	59.5	59.5	36	32.5	2	6	45	0.00	29.458 
19:35	59.2	59.2	59.2	36	32.3	3	11	22	0.00	29.449 
19:40	58.7	58.7	58.7	37	32.5	4	14	112	0.00	29.455 
19:45	58.3	58.3	58.3	39	33.5	4	10	112	0.00	29.457 
19:50	57.8	57.8	57.8	41	34.3	5	12	112	0.00	29.465 
19:55	57.2	57.2	57.2	43	34.9	3	9	112	0.00	29.465 
20:00	56.6	56.6	56.6	46	36.1	3	9	112	0.00	29.457 
20:05	56.2	56.2	56.2	47	36.2	3	12	112	0.00	29.450 
20:10	55.6	55.6	55.6	49	36.7	3	10	112	0.00	29.448 
20:15	55.0	55.0	55.0	50	36.7	3	10	90	0.00	29.450 
20:20	54.4	54.4	54.4	52	37.1	4	12	90	0.00	29.451 
20:25	53.8	53.8	53.8	55	38.0	6	13	112	0.00	29.448 
20:30	53.2	53.2	53.2	57	38.4	4	9	112	0.01	29.440 
20:35	52.5	52.5	52.5	59	38.6	2	5	22	0.00	29.434 
20:40	51.9	51.9	51.9	62	39.3	2	6	112	0.01	29.429 
20:45	51.3	51.3	51.3	62	38.7	3	6	112	0.01	29.438 
20:50	51.0	51.0	51.0	65	39.7	3	10	112	0.00	29.434 
20:55	50.5	50.5	50.5	66	39.6	2	6	112	0.01	29.431 
21:00	50.4	50.4	50.4	67	39.9	3	9	45	0.00	29.420 
21:05	50.2	50.2	50.2	67	39.7	2	6	68	0.01	29.416 
21:10	50.1	50.1	50.1	68	40.0	2	9	45	0.00	29.406 
21:15	50.1	50.1	50.1	68	40.0	3	12	112	0.00	29.403 
21:20	49.8	49.8	49.8	71	40.8	2	7	112	0.01	29.410 
21:25	49.4	49.4	49.4	74	41.5	2	5	112	0.00	29.422 
21:30	49.1	49.1	49.1	76	41.9	3	7	112	0.02	29.449 
21:35	48.6	48.6	48.6	80	42.7	2	6	112	0.04	29.444 
21:40	48.0	48.0	48.0	83	43.1	1	6	90	0.06	29.438 
21:45	47.6	47.6	47.6	85	43.3	1	5	112	0.04	29.421 
21:50	47.3	47.3	47.3	87	43.6	2	5	22	0.04	29.411 
21:55	47.1	47.1	47.1	88	43.7	2	5	45	0.03	29.403 
22:00	47.0	47.0	47.0	88	43.6	3	10	45	0.00	29.405 
22:05	47.0	47.0	47.0	88	43.6	3	11	112	0.01	29.399 
22:10	47.0	47.0	47.0	87	43.3	3	9	45	0.00	29.393 
22:15	47.0	47.0	47.0	87	43.3	2	6	22	0.00	29.383 
22:20	47.0	47.0	47.0	86	43.0	3	9	112	0.01	29.382 
22:25	46.8	45.2	46.8	86	42.8	4	12	90	0.02	29.376 
22:30	46.5	46.5	46.5	87	42.8	3	7	45	0.03	29.372 
22:35	46.4	46.4	46.4	88	43.0	3	12	112	0.01	29.373 
22:40	46.2	46.2	46.2	88	42.8	3	9	0	0.02	29.379 
22:45	46.2	44.5	46.2	88	42.8	4	7	112	0.03	29.381 
22:50	46.1	46.1	46.1	89	43.0	3	7	112	0.02	29.375 
22:55	46.1	46.1	46.1	90	43.3	2	7	22	0.04	29.372 
23:00	46.0	46.0	46.0	90	43.2	2	4	45	0.03	29.359 
23:05	46.0	46.0	46.0	91	43.5	1	5	22	0.04	29.354 
23:10	46.0	46.0	46.0	92	43.8	1	6	90	0.03	29.342 
23:15	46.0	46.0	46.0	92	43.8	3	8	112	0.02	29.346 
23:20	46.0	46.0	46.0	92	43.8	2	7	90	0.01	29.346 
23:25	45.8	45.8	45.8	92	43.6	1	6	90	0.02	29.340 
23:30	45.8	45.8	45.8	92	43.6	2	9	90	0.01	29.339 
23:35	45.8	45.8	45.8	93	43.9	1	3	112	0.02	29.342 
23:40	46.0	46.0	46.0	93	44.1	0	1	112	0.01	29.332 
23:45	46.2	46.2	46.2	93	44.3	0	2	112	0.00	29.322 
23:50	46.5	46.5	46.5	93	44.6	1	4	90	0.01	29.308 
23:55	46.5	46.5	46.5	93	44.6	1	5	45	0.01	29.305 

CoCoRaHS
IN-AL-39
A2 Web Hosting
Creative Commons License
GoDaddy
search engine by freefind advanced

loaded 2018-11-16 00:06:06 • last modified 2010-11-18 10:43:29
Privacy PolicyDisclaimer
• wx.awcolley.com is powered by PmWiki v.2002016 •
• all content (unless otherwise noted) © 2018 A W Colley